Flight Track Log - Related Links

Times and Time Zones

All times are in EDT time to prevent confusion due to time zone crossing. See the MTN7303 flight status page for this flight to view local times or setup timezone preferences in your user account.

Time Position Orientation Groundspeed Altitude Reporting Facility
EDT Latitude Longitude Course Direction KTS MPH feet Rate Location/Type
Wed 11:12:58 PM 39.2000 -76.6667 322° Northwest 96 110 600  Level Potomac TRACON
Wed 11:13:58 PM 39.2167 -76.6833 322° Northwest 113 130 1,400 850 Climbing Potomac TRACON
Wed 11:14:58 PM 39.2500 -76.7167 322° Northwest 119 137 2,300 850 Climbing Potomac TRACON
Wed 11:15:58 PM 39.2667 -76.7333 322° Northwest 120 138 3,100 810 Climbing Potomac TRACON
Wed 11:17:04 PM 39.3000 -76.7500 339° North 125 144 4,000 810 Climbing Potomac TRACON
Wed 11:18:04 PM 39.3333 -76.7667 339° North 131 151 4,800 496 Climbing Potomac TRACON
Wed 11:19:05 PM 39.3833 -76.7833 346° North 138 159 5,000 99 Climbing Potomac TRACON
Wed 11:20:05 PM 39.4000 -76.7333 67° East 163 188 5,000  Level Potomac TRACON
Wed 11:21:05 PM 39.4167 -76.6833 67° East 155 178 5,000  Level Potomac TRACON
Wed 11:22:06 PM 39.4500 -76.6333 49° Northeast 156 180 5,000  Level Potomac TRACON
Wed 11:23:06 PM 39.4667 -76.5833 67° East 158 182 5,000  Level Potomac TRACON
Wed 11:24:07 PM 39.5000 -76.5333 49° Northeast 157 181 5,000  Level Potomac TRACON
Wed 11:25:13 PM 39.5167 -76.4833 67° East 168 193 5,000  Level Potomac TRACON
Wed 11:26:13 PM 39.5500 -76.4333 49° Northeast 174 200 5,000  Level Potomac TRACON
Wed 11:27:19 PM 39.5833 -76.3667 57° Northeast 177 204 5,000  Level Potomac TRACON
Wed 11:28:20 PM 39.6000 -76.3167 67° East 174 200 5,000 31 Level Potomac TRACON
Wed 11:30:35 PM 39.6667 -76.2000 53° Northeast 176 203 5,100 31 Climbing Philadelphia TRACON
Wed 11:31:36 PM 39.7000 -76.1333 57° Northeast 177 204 5,100  Level Philadelphia TRACON
Wed 11:32:12 PM 39.7167 -76.1000 57° Northeast 175 201 5,100  Level Philadelphia TRACON
Wed 11:33:06 PM 39.7333 -76.0500 67° East 173 199 5,100  Level Philadelphia TRACON
Wed 11:34:30 PM 39.7667 -75.9833 57° Northeast 173 199 5,100  Level Philadelphia TRACON
Wed 11:35:30 PM 39.8000 -75.9333 49° Northeast 172 198 5,100  Level Philadelphia TRACON
Wed 11:36:24 PM 39.8167 -75.8833 67° East 170 196 5,100  Level Philadelphia TRACON
Wed 11:37:24 PM 39.8500 -75.8333 49° Northeast 172 198 5,100  Level Philadelphia TRACON
Wed 11:38:24 PM 39.8667 -75.7833 67° East 174 200 5,100  Level Philadelphia TRACON
Wed 11:39:18 PM 39.9000 -75.7333 49° Northeast 173 199 5,100  Level Philadelphia TRACON
Wed 11:40:18 PM 39.9167 -75.6833 66° East 175 201 5,100  Level Philadelphia TRACON
Wed 11:41:30 PM 39.9500 -75.6167 57° Northeast 174 200 5,100  Level Philadelphia TRACON
Wed 11:42:18 PM 39.9667 -75.5667 66° East 174 200 5,100 -59 Level Philadelphia TRACON
Wed 11:43:12 PM 39.9833 -75.5167 66° East 175 201 5,000 -53 Descending Philadelphia TRACON
Wed 11:44:12 PM 40.0167 -75.4667 49° Northeast 176 203 5,000  Level Philadelphia TRACON
Wed 11:45:12 PM 40.0333 -75.4167 66° East 175 201 5,000  Level Philadelphia TRACON
Wed 11:46:00 PM 40.0500 -75.3667 66° East 174 200 5,000  Level Philadelphia TRACON
Wed 11:46:54 PM 40.0833 -75.3167 49° Northeast 172 198 5,000  Level Philadelphia TRACON
Wed 11:47:54 PM 40.1000 -75.2667 66° East 171 197 5,000  Level Philadelphia TRACON
Wed 11:48:54 PM 40.1167 -75.2167 66° East 171 197 5,000  Level Philadelphia TRACON
Wed 11:50:00 PM 40.1500 -75.1500 57° Northeast 172 198 5,000  Level Philadelphia TRACON
Wed 11:50:55 PM 40.1667 -75.1000 66° East 183 211 5,000 -1,148 Level New York TRACON
Wed 11:51:55 PM 40.2000 -75.0500 49° Northeast 170 196 2,800 -1,050 Descending New York TRACON
Wed 11:52:55 PM 40.2167 -75.0000 66° East 170 196 2,900 1,048 Climbing New York TRACON
Wed 11:54:01 PM 40.2500 -74.9333 57° Northeast 171 197 5,000 1,000 Climbing New York TRACON
Wed 11:55:01 PM 40.2667 -74.8833 66° East 172 198 5,000  Level New York TRACON
Wed 11:55:55 PM 40.3000 -74.8500 37° Northeast 174 200 5,000  Level New York TRACON
Wed 11:56:49 PM 40.3333 -74.8000 49° Northeast 171 197 5,000  Level New York TRACON
Wed 11:57:49 PM 40.3667 -74.7667 37° Northeast 176 203 5,000  Level New York TRACON
Wed 11:58:49 PM 40.4000 -74.7167 49° Northeast 172 198 5,000 -350 Level New York TRACON
Wed 11:59:49 PM 40.3833 -74.6500 108° East 172 198 4,300 -700 Descending New York TRACON
Thu 12:00:49 AM 40.3667 -74.6000 114° Southeast 167 192 3,600 -650 Descending New York TRACON
Thu 12:01:49 AM 40.3333 -74.5500 131° Southeast 169 194 3,000 -300 Descending New York TRACON
Thu 12:02:49 AM 40.3167 -74.5000 114° Southeast 161 185 3,000  Level New York TRACON
Thu 12:03:49 AM 40.3167 -74.4333 90° East 184 212 3,000  Level New York TRACON
Thu 12:04:43 AM 40.3500 -74.4000 37° Northeast 178 205 3,000  Level New York TRACON
Thu 12:05:44 AM 40.3833 -74.3500 49° Northeast 183 211 3,000  Level New York TRACON
Thu 12:06:55 AM 40.4500 -74.3333 11° North 185 213 3,000  Level New York TRACON
Thu 12:07:50 AM 40.4833 -74.3000 37° Northeast 184 212 3,000  Level New York TRACON
Thu 12:09:01 AM 40.5333 -74.2667 27° Northeast 185 213 3,000 -190 Level New York TRACON
Thu 12:09:56 AM 40.5833 -74.2333 27° Northeast 188 216 2,600 -881 Descending New York TRACON
Thu 12:10:50 AM 40.6333 -74.2000 27° Northeast 193 222 1,400 -1,211 Descending New York TRACON
Thu 12:11:50 AM 40.6667 -74.1833 21° North 164 189 300 -1,100 Descending New York TRACON
Thu 12:13:00 AM 40.6833 -74.1667 23° Northeast  Level FlightAware Approximate
Thu 12:20:00 AM 40.6925 -74.1687 23° Northeast  Level Estimated
Thu 12:21:00 AM 40.6925 -74.1687 23° Northeast  Level Estimated

Login

Don't have an account? Register now (free) for customized features, flight alerts, and more!